createdAt,value
2022-11-27T00:00:47.185Z,2.76
2022-11-27T00:03:13.800Z,2.75
2022-11-27T00:05:40.471Z,2.72
2022-11-27T00:08:07.135Z,2.69
2022-11-27T00:10:33.662Z,2.70
2022-11-27T00:13:00.098Z,2.62
2022-11-27T00:15:26.628Z,2.57
2022-11-27T00:17:53.156Z,2.53
2022-11-27T00:20:19.633Z,2.55
2022-11-27T00:22:46.162Z,2.56
2022-11-27T00:25:12.719Z,2.58
2022-11-27T00:27:39.319Z,2.51
2022-11-27T00:30:06.161Z,2.35
2022-11-27T00:32:32.730Z,2.26
2022-11-27T00:34:59.326Z,2.23
2022-11-27T00:37:25.922Z,2.25
2022-11-27T00:39:52.430Z,2.25
2022-11-27T00:42:19.022Z,2.28
2022-11-27T00:44:45.542Z,2.24
2022-11-27T00:47:12.193Z,2.30
2022-11-27T00:49:38.736Z,2.24
2022-11-27T00:52:10.626Z,2.17
2022-11-27T00:54:37.439Z,2.20
2022-11-27T00:57:04.435Z,2.26
2022-11-27T00:59:31.156Z,2.21
2022-11-27T01:01:57.865Z,2.20
2022-11-27T01:04:24.475Z,2.12
2022-11-27T01:06:51.230Z,2.09
2022-11-27T01:09:17.729Z,2.08
2022-11-27T01:11:44.309Z,2.04
2022-11-27T01:14:15.606Z,2.09
2022-11-27T01:16:43.320Z,2.15
2022-11-27T01:19:10.382Z,2.16
2022-11-27T01:21:36.995Z,2.23
2022-11-27T01:24:04.176Z,2.17
2022-11-27T01:26:30.881Z,2.14
2022-11-27T01:28:57.839Z,2.16
2022-11-27T01:31:25.334Z,2.20
2022-11-27T01:33:55.842Z,2.16
2022-11-27T01:36:22.562Z,2.12
2022-11-27T01:38:49.341Z,2.16
2022-11-27T01:41:15.872Z,2.12
2022-11-27T01:43:43.908Z,2.15
2022-11-27T01:46:29.542Z,2.09
2022-11-27T01:48:58.363Z,2.07
2022-11-27T01:51:25.038Z,2.08
2022-11-27T01:53:51.666Z,2.15
2022-11-27T01:56:18.300Z,2.16
2022-11-27T01:58:44.881Z,2.12
2022-11-27T02:01:11.404Z,2.08
2022-11-27T02:03:38.027Z,2.09
2022-11-27T02:06:04.581Z,2.03
2022-11-27T02:08:31.129Z,1.97
2022-11-27T02:11:01.592Z,1.99
2022-11-27T02:13:39.022Z,2.01
2022-11-27T02:16:18.000Z,2.00
2022-11-27T02:18:50.937Z,1.95
2022-11-27T02:21:24.789Z,1.88
2022-11-27T02:24:14.735Z,1.85
2022-11-27T02:26:41.198Z,1.78
2022-11-27T02:29:11.757Z,1.66
2022-11-27T02:31:47.718Z,1.66
2022-11-27T02:34:17.687Z,1.68
2022-11-27T02:36:46.586Z,1.64
2022-11-27T02:39:15.130Z,1.65
2022-11-27T02:41:43.893Z,1.62
2022-11-27T02:44:10.592Z,1.57
2022-11-27T02:46:37.240Z,1.54
2022-11-27T02:49:05.493Z,1.56
2022-11-27T02:51:37.354Z,1.43
2022-11-27T02:54:04.871Z,1.47
2022-11-27T02:56:31.457Z,1.48
2022-11-27T02:58:59.501Z,1.41
2022-11-27T03:01:26.064Z,1.36
2022-11-27T03:03:53.601Z,1.35
2022-11-27T03:06:27.854Z,1.37
2022-11-27T03:08:56.483Z,1.36
2022-11-27T03:11:23.173Z,1.30
2022-11-27T03:13:51.477Z,1.24
2022-11-27T03:16:36.624Z,1.12
2022-11-27T03:19:03.353Z,1.09
2022-11-27T03:21:34.428Z,1.12
2022-11-27T03:24:00.856Z,1.19
2022-11-27T03:26:27.312Z,1.19
2022-11-27T03:28:54.041Z,1.17
2022-11-27T03:31:20.574Z,1.21
2022-11-27T03:33:47.333Z,1.21
2022-11-27T03:36:17.921Z,1.12
2022-11-27T03:38:44.613Z,1.11
2022-11-27T03:41:18.157Z,1.12
2022-11-27T03:43:59.887Z,1.05
2022-11-27T03:46:49.709Z,0.99
2022-11-27T03:49:22.812Z,1.03
2022-11-27T03:51:55.387Z,1.10
2022-11-27T03:54:25.065Z,1.17
2022-11-27T03:57:10.439Z,1.21
2022-11-27T03:59:37.875Z,1.18
2022-11-27T04:02:04.376Z,1.16
2022-11-27T04:04:31.042Z,1.24
2022-11-27T04:06:57.528Z,1.24
2022-11-27T04:09:25.544Z,1.24
2022-11-27T04:11:52.089Z,1.22
2022-11-27T04:14:18.662Z,1.25
2022-11-27T04:16:45.128Z,1.28
2022-11-27T04:19:11.694Z,1.26
2022-11-27T04:21:38.378Z,1.21
2022-11-27T04:24:04.962Z,1.19
2022-11-27T04:26:31.442Z,1.15
2022-11-27T04:28:57.894Z,1.24
2022-11-27T04:31:24.502Z,1.24
2022-11-27T04:33:51.118Z,1.33
2022-11-27T04:36:17.586Z,1.31
2022-11-27T04:38:44.038Z,1.43
2022-11-27T04:41:10.638Z,1.47
2022-11-27T04:43:37.205Z,1.49
2022-11-27T04:46:03.765Z,1.61
2022-11-27T04:48:30.370Z,1.65
2022-11-27T04:50:56.863Z,1.59
2022-11-27T04:53:23.330Z,1.59
2022-11-27T04:55:51.143Z,1.62
2022-11-27T04:58:17.654Z,1.61
2022-11-27T05:00:44.464Z,1.66
2022-11-27T05:03:11.040Z,1.67
2022-11-27T05:05:37.632Z,1.61
2022-11-27T05:08:04.340Z,1.67
2022-11-27T05:10:30.934Z,1.66
2022-11-27T05:12:57.403Z,1.67
2022-11-27T05:15:23.884Z,1.71
2022-11-27T05:17:50.392Z,1.69
2022-11-27T05:20:17.060Z,1.69
2022-11-27T05:22:44.922Z,1.69
2022-11-27T05:25:11.406Z,1.69
2022-11-27T05:27:37.896Z,1.67
2022-11-27T05:30:04.569Z,1.63
2022-11-27T05:32:31.079Z,1.63
2022-11-27T05:34:57.619Z,1.66
2022-11-27T05:37:24.213Z,1.70
2022-11-27T05:39:50.859Z,1.78
2022-11-27T05:42:17.508Z,1.77
2022-11-27T05:44:44.073Z,1.76
2022-11-27T05:47:10.595Z,1.77
2022-11-27T05:49:37.529Z,1.82
2022-11-27T05:52:04.179Z,1.89
2022-11-27T05:54:30.769Z,1.87
2022-11-27T05:56:57.303Z,1.91
2022-11-27T05:59:24.077Z,1.95
2022-11-27T06:01:50.956Z,1.99
2022-11-27T06:04:17.627Z,2.10
2022-11-27T06:06:44.378Z,2.07
2022-11-27T06:09:13.045Z,2.18
2022-11-27T06:11:40.091Z,2.18
2022-11-27T06:14:07.731Z,2.19
2022-11-27T06:16:34.376Z,2.18
2022-11-27T06:19:00.882Z,2.18
2022-11-27T06:21:27.394Z,2.20
2022-11-27T06:23:55.079Z,2.20
2022-11-27T06:26:28.838Z,2.16
2022-11-27T06:28:56.301Z,2.16
2022-11-27T06:31:24.601Z,2.14
2022-11-27T06:33:51.661Z,2.12
2022-11-27T06:36:20.485Z,2.16
2022-11-27T06:38:46.986Z,2.16
2022-11-27T06:41:15.304Z,2.20
2022-11-27T06:43:41.854Z,2.20
2022-11-27T06:46:09.150Z,2.18
2022-11-27T06:48:35.642Z,2.21
2022-11-27T06:51:02.480Z,2.24
2022-11-27T06:53:29.760Z,2.27
2022-11-27T06:55:56.494Z,2.27
2022-11-27T06:58:27.758Z,2.31
2022-11-27T07:00:58.023Z,2.33
2022-11-27T07:03:24.860Z,2.41
2022-11-27T07:05:51.343Z,2.40
2022-11-27T07:08:17.907Z,2.37
2022-11-27T07:10:44.384Z,2.35
2022-11-27T07:13:10.915Z,2.37
2022-11-27T07:15:37.431Z,2.39
2022-11-27T07:18:03.960Z,2.45
2022-11-27T07:20:30.403Z,2.53
2022-11-27T07:22:56.890Z,2.58
2022-11-27T07:25:23.381Z,2.51
2022-11-27T07:27:49.903Z,2.53
2022-11-27T07:30:16.440Z,2.55
2022-11-27T07:32:43.007Z,2.60
2022-11-27T07:35:09.636Z,2.62
2022-11-27T07:37:36.196Z,2.66
2022-11-27T07:40:03.602Z,2.74
2022-11-27T07:42:37.880Z,2.89
2022-11-27T07:45:05.814Z,2.86
2022-11-27T07:47:32.360Z,3.01
2022-11-27T07:50:00.450Z,3.08
2022-11-27T07:52:27.410Z,3.08
2022-11-27T07:54:53.965Z,3.09
2022-11-27T07:57:20.504Z,3.17
2022-11-27T07:59:47.600Z,3.37
2022-11-27T08:02:14.521Z,3.33
2022-11-27T08:04:41.255Z,3.36
2022-11-27T08:07:07.998Z,3.50
2022-11-27T08:09:34.506Z,3.49
2022-11-27T08:12:01.059Z,3.44
2022-11-27T08:14:27.549Z,3.41
2022-11-27T08:16:54.176Z,3.46
2022-11-27T08:19:20.747Z,3.33
2022-11-27T08:21:47.242Z,3.31
2022-11-27T08:24:13.776Z,3.30
2022-11-27T08:26:40.312Z,3.30
2022-11-27T08:29:06.885Z,3.31
2022-11-27T08:31:33.713Z,3.31
2022-11-27T08:34:00.316Z,3.35
2022-11-27T08:36:26.912Z,3.40
2022-11-27T08:38:54.148Z,3.52
2022-11-27T08:41:20.620Z,3.62
2022-11-27T08:43:47.188Z,3.67
2022-11-27T08:46:13.760Z,3.74
2022-11-27T08:48:40.662Z,3.91
2022-11-27T08:51:08.389Z,4.25
2022-11-27T08:53:36.135Z,4.44
2022-11-27T08:56:09.619Z,4.42
2022-11-27T08:58:36.386Z,4.67
2022-11-27T09:01:14.182Z,5.09
2022-11-27T09:03:40.960Z,5.25
2022-11-27T09:06:08.537Z,5.06
2022-11-27T09:08:35.030Z,5.18
2022-11-27T09:11:02.054Z,5.30
2022-11-27T09:13:28.517Z,5.60
2022-11-27T09:15:56.353Z,5.31
2022-11-27T09:38:35.330Z,4.83
2022-11-27T09:41:28.189Z,4.88
2022-11-27T12:19:20.714Z,6.62
2022-11-27T12:21:57.050Z,6.60
2022-11-27T12:24:29.485Z,6.32
2022-11-27T12:27:15.048Z,6.27
2022-11-27T12:30:02.545Z,6.44
2022-11-27T12:32:45.451Z,6.64
2022-11-27T12:35:21.270Z,6.46
2022-11-27T12:38:00.996Z,6.77
2022-11-27T12:40:36.802Z,6.82
2022-11-27T12:43:17.316Z,6.62
2022-11-27T12:45:45.203Z,6.73
2022-11-27T12:48:17.125Z,6.64
2022-11-27T12:51:00.751Z,6.66
2022-11-27T12:53:33.436Z,6.40
2022-11-27T12:56:13.899Z,6.45
2022-11-27T12:58:41.819Z,6.33
2022-11-27T13:01:13.148Z,6.40
2022-11-27T13:03:54.650Z,6.29
2022-11-27T13:06:22.503Z,6.10
2022-11-27T13:08:52.426Z,6.18
2022-11-27T13:11:19.755Z,6.03
2022-11-27T13:13:47.544Z,6.04
2022-11-27T13:16:18.976Z,5.95
2022-11-27T13:18:49.056Z,5.91
2022-11-27T13:21:18.134Z,5.94
2022-11-27T13:23:44.646Z,5.74
2022-11-27T13:26:12.213Z,5.71
2022-11-27T13:28:49.882Z,5.68
2022-11-27T13:31:21.291Z,5.63
2022-11-27T13:33:48.703Z,5.62
2022-11-27T13:36:21.761Z,5.61
2022-11-27T13:39:01.002Z,5.60
2022-11-27T13:41:40.312Z,5.63
2022-11-27T13:44:26.075Z,5.64
2022-11-27T13:46:54.939Z,5.64
2022-11-27T13:49:24.115Z,5.64
2022-11-27T13:51:50.908Z,5.64
2022-11-27T13:54:23.284Z,5.68
2022-11-27T13:56:52.654Z,5.69
2022-11-27T13:59:23.368Z,5.64
2022-11-27T14:02:16.462Z,5.64
2022-11-27T14:04:55.635Z,5.67
2022-11-27T14:07:22.872Z,5.62
2022-11-27T14:09:51.136Z,5.61
2022-11-27T14:12:20.708Z,5.62
2022-11-27T14:15:06.054Z,5.61
2022-11-27T14:17:37.285Z,5.61
2022-11-27T14:20:24.771Z,5.55
2022-11-27T14:23:12.859Z,5.58
2022-11-27T14:25:40.475Z,5.56
2022-11-27T14:28:11.428Z,5.56
2022-11-27T14:30:51.263Z,5.56
2022-11-27T14:33:27.847Z,5.53
2022-11-27T14:35:55.558Z,5.52
2022-11-27T14:38:22.634Z,5.50
2022-11-27T14:40:49.399Z,5.50
2022-11-27T14:43:17.003Z,5.50
2022-11-27T14:45:47.087Z,5.50
2022-11-27T14:48:21.247Z,5.49
2022-11-27T14:50:48.446Z,5.46
2022-11-27T14:53:14.938Z,5.44
2022-11-27T14:55:41.434Z,5.46
2022-11-27T14:58:08.219Z,5.46
2022-11-27T15:00:34.799Z,5.47
2022-11-27T15:03:11.082Z,5.47
2022-11-27T15:05:37.851Z,5.41
2022-11-27T15:08:04.761Z,5.40
2022-11-27T15:10:32.872Z,5.36
2022-11-27T15:12:59.946Z,5.33
2022-11-27T15:15:27.711Z,5.31
2022-11-27T15:18:03.959Z,5.29
2022-11-27T15:20:39.891Z,5.31
2022-11-27T15:23:16.882Z,5.30
2022-11-27T15:25:44.681Z,5.28
2022-11-27T15:28:23.441Z,5.29
2022-11-27T15:30:50.369Z,5.22
2022-11-27T15:33:33.183Z,5.20
2022-11-27T15:36:32.251Z,5.17
2022-11-27T15:39:10.017Z,5.13
2022-11-27T15:41:40.832Z,5.13
2022-11-27T15:44:10.057Z,5.09
2022-11-27T15:46:36.735Z,5.06
2022-11-27T15:49:03.294Z,5.04
2022-11-27T15:51:30.351Z,5.03
2022-11-27T15:53:56.879Z,5.03
2022-11-27T15:56:23.453Z,5.00
2022-11-27T15:58:50.140Z,4.97
2022-11-27T16:01:16.917Z,4.97
2022-11-27T16:03:43.582Z,4.96
2022-11-27T16:06:10.155Z,4.95
2022-11-27T16:08:36.851Z,4.93
2022-11-27T16:11:05.186Z,4.95
2022-11-27T16:13:31.855Z,4.84
2022-11-27T16:16:06.888Z,4.81
2022-11-27T16:18:34.676Z,4.81
2022-11-27T16:21:07.584Z,4.82
2022-11-27T16:23:34.101Z,4.87
2022-11-27T16:26:00.673Z,4.83
2022-11-27T16:28:28.171Z,4.84
2022-11-27T16:30:58.475Z,4.84
2022-11-27T16:33:31.737Z,4.79
2022-11-27T16:36:11.739Z,4.73
2022-11-27T16:38:38.488Z,4.73
2022-11-27T16:41:06.451Z,4.69
2022-11-27T16:43:40.290Z,4.69
2022-11-27T16:46:08.003Z,4.66
2022-11-27T16:48:35.231Z,4.70
2022-11-27T16:51:05.018Z,4.76
2022-11-27T16:53:31.679Z,4.67
2022-11-27T16:55:58.441Z,4.64
2022-11-27T16:58:25.055Z,4.62
2022-11-27T17:00:51.909Z,4.59
2022-11-27T17:03:18.775Z,4.60
2022-11-27T17:05:51.217Z,4.65
2022-11-27T17:08:18.156Z,4.66
2022-11-27T17:10:45.486Z,4.62
2022-11-27T17:13:12.120Z,4.56
2022-11-27T17:15:40.670Z,4.58
2022-11-27T17:18:07.648Z,4.55
2022-11-27T17:20:34.489Z,4.60
2022-11-27T17:23:01.178Z,4.55
2022-11-27T17:25:29.633Z,4.58
2022-11-27T17:27:56.302Z,4.54
2022-11-27T17:30:23.007Z,4.52
2022-11-27T17:32:49.668Z,4.51
2022-11-27T17:35:16.413Z,4.50
2022-11-27T17:37:43.885Z,4.51
2022-11-27T17:40:10.971Z,4.51
2022-11-27T17:42:37.659Z,4.44
2022-11-27T17:45:05.022Z,4.43
2022-11-27T17:47:32.134Z,4.47
2022-11-27T17:49:58.799Z,4.46
2022-11-27T17:52:25.440Z,4.43
2022-11-27T17:54:52.061Z,4.40
2022-11-27T17:57:18.727Z,4.42
2022-11-27T17:59:45.510Z,4.39
2022-11-27T18:02:12.309Z,4.41
2022-11-27T18:04:38.950Z,4.41
2022-11-27T18:07:05.455Z,4.40
2022-11-27T18:09:32.147Z,4.38
2022-11-27T18:11:58.936Z,4.38
2022-11-27T18:14:25.685Z,4.35
2022-11-27T18:16:52.507Z,4.37
2022-11-27T18:19:19.412Z,4.37
2022-11-27T18:21:46.218Z,4.38
2022-11-27T18:24:28.178Z,4.41
2022-11-27T18:27:10.544Z,4.37
2022-11-27T18:29:38.126Z,4.36
2022-11-27T18:32:04.918Z,4.39
2022-11-27T18:34:31.798Z,4.43
2022-11-27T18:37:01.420Z,4.41
2022-11-27T18:39:28.299Z,4.39
2022-11-27T18:41:54.811Z,4.38
2022-11-27T18:44:21.602Z,4.44
2022-11-27T18:46:48.230Z,4.41
2022-11-27T18:49:14.820Z,4.36
2022-11-27T18:51:41.543Z,4.38
2022-11-27T18:54:08.269Z,4.37
2022-11-27T18:56:35.192Z,4.40
2022-11-27T18:59:03.133Z,4.44
2022-11-27T19:01:30.503Z,4.44
2022-11-27T19:03:59.129Z,4.41
2022-11-27T19:06:25.784Z,4.41
2022-11-27T19:08:52.548Z,4.42
2022-11-27T19:11:20.515Z,4.40
2022-11-27T19:13:48.286Z,4.41
2022-11-27T19:16:18.139Z,4.41
2022-11-27T19:18:44.944Z,4.39
2022-11-27T19:21:12.305Z,4.39
2022-11-27T19:23:39.527Z,4.39
2022-11-27T19:26:09.806Z,4.43
2022-11-27T19:28:36.488Z,4.43
2022-11-27T19:31:04.364Z,4.40
2022-11-27T19:33:31.275Z,4.42
2022-11-27T19:36:01.289Z,4.37
2022-11-27T19:38:28.056Z,4.35
2022-11-27T19:40:54.613Z,4.39
2022-11-27T19:43:21.282Z,4.34
2022-11-27T19:45:48.006Z,4.29
2022-11-27T19:48:17.570Z,4.24
2022-11-27T19:50:48.385Z,4.29
2022-11-27T19:53:15.034Z,4.26
2022-11-27T19:55:42.197Z,4.27
2022-11-27T19:58:08.988Z,4.29
2022-11-27T20:00:35.686Z,4.30
2022-11-27T20:03:02.434Z,4.33
2022-11-27T20:05:29.189Z,4.27
2022-11-27T20:07:55.877Z,4.27
2022-11-27T20:10:22.454Z,4.30
2022-11-27T20:12:49.142Z,4.31
2022-11-27T20:15:17.064Z,4.34
2022-11-27T20:17:44.164Z,4.35
2022-11-27T20:20:11.259Z,4.36
2022-11-27T20:22:37.873Z,4.37
2022-11-27T20:25:18.841Z,4.42
2022-11-27T20:27:46.040Z,4.43
2022-11-27T20:30:12.785Z,4.43
2022-11-27T20:32:39.545Z,4.38
2022-11-27T20:35:06.309Z,4.33
2022-11-27T20:37:34.088Z,4.31
2022-11-27T20:40:00.803Z,4.32
2022-11-27T20:42:27.347Z,4.28
2022-11-27T20:44:54.073Z,4.26
2022-11-27T20:47:20.597Z,4.29
2022-11-27T20:49:47.461Z,4.31
2022-11-27T20:52:14.668Z,4.30
2022-11-27T20:54:41.466Z,4.29
2022-11-27T20:57:14.246Z,4.27
2022-11-27T20:59:41.731Z,4.32
2022-11-27T21:02:12.579Z,4.27
2022-11-27T21:04:41.997Z,4.20
2022-11-27T21:07:08.631Z,4.23
2022-11-27T21:09:35.297Z,4.26
2022-11-27T21:12:01.935Z,4.22
2022-11-27T21:14:28.813Z,4.23
2022-11-27T21:16:58.025Z,4.20
2022-11-27T21:19:28.118Z,4.21
2022-11-27T21:21:54.889Z,4.21
2022-11-27T21:24:21.972Z,4.17
2022-11-27T21:26:48.922Z,4.16
2022-11-27T21:29:15.622Z,4.16
2022-11-27T21:31:46.400Z,4.13
2022-11-27T21:34:13.436Z,4.13
2022-11-27T21:36:40.208Z,4.06
2022-11-27T21:39:08.392Z,4.09
2022-11-27T21:41:35.335Z,4.08
2022-11-27T21:44:02.274Z,4.07
2022-11-27T21:46:29.102Z,4.05
2022-11-27T21:48:57.005Z,4.07
2022-11-27T21:51:23.860Z,4.06
2022-11-27T21:53:51.069Z,4.07
2022-11-27T21:56:18.375Z,4.09
2022-11-27T21:58:45.074Z,4.06
2022-11-27T22:01:12.844Z,4.05
2022-11-27T22:03:42.491Z,4.07
2022-11-27T22:06:19.164Z,4.10
2022-11-27T22:08:46.712Z,4.10
2022-11-27T22:11:18.092Z,4.09
2022-11-27T22:13:45.050Z,4.14
2022-11-27T22:16:15.556Z,4.12
2022-11-27T22:18:42.773Z,4.14
2022-11-27T22:21:10.052Z,4.11
2022-11-27T22:23:36.973Z,4.11
2022-11-27T22:26:04.323Z,4.08
2022-11-27T22:28:31.177Z,4.02
2022-11-27T22:30:58.080Z,4.03
2022-11-27T22:33:24.959Z,4.01
2022-11-27T22:35:51.762Z,4.03
2022-11-27T22:38:18.709Z,4.00
2022-11-27T22:40:55.197Z,3.94
2022-11-27T23:21:27.856Z,3.69
2022-11-27T23:23:54.549Z,3.72
2022-11-27T23:26:22.001Z,3.69
2022-11-27T23:28:49.777Z,3.67
2022-11-27T23:31:33.473Z,3.67
2022-11-27T23:34:02.136Z,3.70
2022-11-27T23:36:29.370Z,3.69
2022-11-27T23:38:56.429Z,3.69
2022-11-27T23:41:23.879Z,3.64
2022-11-27T23:43:50.733Z,3.64
2022-11-27T23:46:18.442Z,3.63
2022-11-27T23:48:45.409Z,3.63
2022-11-27T23:51:13.256Z,3.63
2022-11-27T23:53:40.054Z,3.62
2022-11-27T23:56:13.091Z,3.64
2022-11-27T23:58:45.257Z,3.61
